Time;durP1;ratioP1;P1;durP2;ratioP2;P2;SDS_P1;SDS_P2;PMS_P1;PMS_P2;Temp;Humidity;BMP_temperature;BMP_pressure;BME280_temperature;BME280_humidity;BME280_pressure;Samples;Min_cycle;Max_cycle;Signal;HPM_P1;HPM_P2
2022/11/18 00:00:00;;;;;;;2.00;0.95;;;;;;;-0.27;84.08;98916.00;1691668;82;21075;-77
2022/11/18 00:02:27;;;;;;;1.10;0.98;;;;;;;-0.27;84.10;98912.14;1662833;84;20942;-77
2022/11/18 00:04:54;;;;;;;2.33;1.23;;;;;;;-0.25;84.09;98924.52;1669900;84;20982;-77
2022/11/18 00:07:20;;;;;;;1.02;0.95;;;;;;;-0.21;84.04;98903.95;1664603;83;20994;-77
2022/11/18 00:09:47;;;;;;;1.70;1.03;;;;;;;-0.20;84.09;98903.06;1674372;83;20977;-77
2022/11/18 00:14:59;;;;;;;1.57;1.10;;;;;;;-0.17;84.00;98895.31;1682182;83;20974;-77
2022/11/18 00:17:25;;;;;;;0.85;0.85;;;;;;;-0.16;83.97;98894.45;1688498;83;21432;-77
2022/11/18 00:19:52;;;;;;;1.40;1.02;;;;;;;-0.14;84.00;98891.41;1685053;83;20966;-76
2022/11/18 00:22:19;;;;;;;1.92;0.90;;;;;;;-0.13;83.89;98895.69;1680484;83;20892;-77
2022/11/18 00:24:45;;;;;;;1.30;0.98;;;;;;;-0.11;83.96;98884.93;1679555;83;22084;-77
2022/11/18 00:27:12;;;;;;;1.10;0.93;;;;;;;-0.09;83.96;98880.63;1670343;83;20918;-77
2022/11/18 00:29:39;;;;;;;1.13;1.00;;;;;;;-0.09;83.97;98885.31;1662794;83;20930;-77
2022/11/18 00:32:06;;;;;;;3.70;0.82;;;;;;;-0.18;83.93;98873.94;1660069;85;21392;-77
2022/11/18 00:34:32;;;;;;;1.55;1.22;;;;;;;-0.05;83.91;98884.85;1667724;83;21460;-77
2022/11/18 00:36:59;;;;;;;0.90;0.90;;;;;;;-0.04;83.94;98881.40;1632809;85;21080;-78
2022/11/18 00:39:26;;;;;;;1.30;1.07;;;;;;;-0.02;83.88;98889.92;1609981;87;21456;-76
2022/11/18 00:44:37;;;;;;;2.40;1.10;;;;;;;0.01;83.83;98877.03;1681858;83;21476;-76
2022/11/18 00:47:04;;;;;;;1.55;1.27;;;;;;;0.01;83.81;98868.05;1683957;83;21017;-76
2022/11/18 00:49:30;;;;;;;1.60;1.02;;;;;;;0.04;83.87;98861.58;1666320;83;21085;-76
2022/11/18 00:51:57;;;;;;;1.75;1.12;;;;;;;0.06;83.76;98857.27;1680363;84;20926;-76
2022/11/18 00:54:24;;;;;;;1.35;1.20;;;;;;;0.06;83.81;98852.13;1676128;83;20970;-76
2022/11/18 00:56:51;;;;;;;1.67;1.12;;;;;;;0.10;83.88;98856.33;1682192;83;20919;-76
2022/11/18 00:59:18;;;;;;;2.67;1.00;;;;;;;0.13;83.84;98867.81;1679810;83;20887;-76
2022/11/18 01:01:44;;;;;;;2.47;1.20;;;;;;;0.14;83.74;98859.67;1701378;82;21949;-76
2022/11/18 01:04:11;;;;;;;1.22;1.12;;;;;;;0.16;83.86;98860.05;1712726;81;20905;-76
2022/11/18 01:06:38;;;;;;;2.10;1.22;;;;;;;0.21;83.91;98860.81;1700015;82;21948;-76
2022/11/18 01:09:04;;;;;;;1.87;0.95;;;;;;;0.23;83.87;98868.95;1679050;83;20937;-76
2022/11/18 01:14:15;;;;;;;2.15;1.12;;;;;;;0.30;83.89;98846.11;1713722;82;21863;-76
2022/11/18 01:16:43;;;;;;;2.17;1.30;;;;;;;0.31;83.86;98841.38;1706905;82;20968;-76
2022/11/18 01:19:09;;;;;;;1.37;1.27;;;;;;;0.34;83.91;98843.91;1709070;81;20923;-76
2022/11/18 01:21:36;;;;;;;1.93;1.10;;;;;;;0.37;83.90;98842.56;1689973;83;20918;-76
2022/11/18 01:24:03;;;;;;;1.95;1.17;;;;;;;0.40;83.91;98846.34;1690131;84;20942;-76
2022/11/18 01:26:30;;;;;;;2.62;1.20;;;;;;;0.44;83.91;98840.26;1712013;81;21867;-76
2022/11/18 01:28:56;;;;;;;2.10;1.40;;;;;;;0.46;83.90;98853.08;1658667;83;20988;-76
2022/11/18 01:31:24;;;;;;;1.95;1.20;;;;;;;0.45;83.87;98849.67;1682720;83;21017;-76
2022/11/18 01:33:51;;;;;;;1.60;1.22;;;;;;;0.48;83.89;98862.45;1690372;83;20910;-76
2022/11/18 01:36:22;;;;;;;2.17;1.43;;;;;;;0.49;83.91;98855.14;1684273;82;20933;-76
2022/11/18 01:38:50;;;;;;;2.45;1.45;;;;;;;0.51;83.91;98845.69;1708912;82;21058;-76
2022/11/18 01:41:18;;;;;;;3.10;1.25;;;;;;;0.54;83.85;98855.89;1703714;82;21449;-76
2022/11/18 01:44:08;;;;;;;1.55;1.35;;;;;;;0.55;83.75;98840.88;1710842;82;20933;-76
2022/11/18 01:46:34;;;;;;;1.35;1.15;;;;;;;0.55;83.79;98835.74;1703526;82;20953;-76
2022/11/18 01:49:09;;;;;;;1.47;1.37;;;;;;;0.57;83.78;98840.42;1699445;82;20944;-76
2022/11/18 01:51:49;;;;;;;2.77;1.57;;;;;;;0.58;83.77;98840.81;1710470;82;21036;-76
2022/11/18 01:54:35;;;;;;;1.32;1.00;;;;;;;0.59;83.76;98821.14;1706263;82;20980;-76
2022/11/18 01:57:06;;;;;;;3.00;1.35;;;;;;;0.61;83.82;98824.05;1705112;82;20906;-76
2022/11/18 01:59:36;;;;;;;1.98;1.27;;;;;;;0.63;83.71;98817.61;1698171;82;21496;-76
2022/11/18 02:02:08;;;;;;;2.50;1.50;;;;;;;0.65;83.74;98837.25;1674011;83;20973;-77
2022/11/18 02:04:35;;;;;;;1.75;1.17;;;;;;;0.64;83.62;98830.44;1691850;81;21161;-77
2022/11/18 02:07:02;;;;;;;1.50;1.40;;;;;;;0.58;83.59;98839.53;1702865;82;20945;-77
2022/11/18 02:09:29;;;;;;;2.80;1.40;;;;;;;0.54;83.48;98831.49;1710396;83;20998;-77
2022/11/18 02:11:56;;;;;;;2.20;1.35;;;;;;;0.53;83.59;98838.77;1694827;83;21635;-77
2022/11/18 02:14:27;;;;;;;1.90;1.40;;;;;;;0.56;83.58;98840.02;1684466;83;20966;-76
2022/11/18 02:17:32;;;;;;;2.30;1.50;;;;;;;0.58;83.53;98825.41;1698780;83;20991;-77
2022/11/18 02:20:32;;;;;;;1.67;1.17;;;;;;;0.58;83.50;98835.67;1694120;82;20910;-77
2022/11/18 02:23:07;;;;;;;2.25;1.30;;;;;;;0.62;83.51;98829.61;1695977;83;21554;-77
2022/11/18 02:25:44;;;;;;;2.62;2.10;;;;;;;0.66;83.55;98831.22;1692249;84;20931;-77
2022/11/18 02:28:34;;;;;;;5.47;1.60;;;;;;;0.66;83.43;98829.94;1613457;86;20986;-77
2022/11/18 02:31:24;;;;;;;4.67;1.60;;;;;;;0.71;83.49;98829.85;1610817;87;21089;-77
2022/11/18 02:34:08;;;;;;;1.75;1.50;;;;;;;0.76;83.44;98843.89;1619660;87;21014;-77
2022/11/18 02:36:42;;;;;;;1.80;1.25;;;;;;;0.79;83.47;98841.26;1612486;87;21482;-77
2022/11/18 02:39:16;;;;;;;3.60;1.52;;;;;;;0.81;83.39;98844.61;1613044;86;20966;-77
2022/11/18 02:41:45;;;;;;;1.72;1.25;;;;;;;0.82;83.34;98836.05;1613873;87;20982;-77
2022/11/18 02:44:15;;;;;;;2.00;1.55;;;;;;;0.83;83.36;98837.73;1609487;87;22073;-77
2022/11/18 02:46:49;;;;;;;2.17;1.37;;;;;;;0.85;83.30;98834.69;1611868;86;21551;-77
2022/11/18 02:49:23;;;;;;;2.70;1.37;;;;;;;0.84;83.32;98839.41;1611874;87;20934;-77
2022/11/18 02:51:51;;;;;;;2.95;1.72;;;;;;;0.88;83.30;98843.62;1614268;87;21496;-77
2022/11/18 02:54:21;;;;;;;1.87;1.50;;;;;;;0.89;83.21;98858.14;1610787;87;20994;-77
2022/11/18 02:56:48;;;;;;;1.45;1.30;;;;;;;;;;1606912;87;21054;-78
2022/11/18 02:59:19;;;;;;;2.37;1.37;;;;;;;0.96;83.25;98836.58;1591129;87;21003;-77
2022/11/18 03:01:47;;;;;;;1.85;1.50;;;;;;;0.97;83.18;98838.27;1592278;87;20995;-78
2022/11/18 03:04:15;;;;;;;2.65;1.70;;;;;;;0.98;83.16;98837.41;1558985;90;28366;-78
2022/11/18 03:06:53;;;;;;;1.62;1.25;;;;;;;0.97;83.14;98838.27;1694262;83;21067;-78
2022/11/18 03:09:36;;;;;;;2.65;1.60;;;;;;;0.98;83.10;98852.83;1693254;83;21150;-78
2022/11/18 03:12:23;;;;;;;1.85;1.60;;;;;;;1.00;83.10;98845.91;1689896;84;20950;-77
2022/11/18 03:15:13;;;;;;;2.52;1.45;;;;;;;1.01;83.08;98845.04;1687500;82;20958;-78
2022/11/18 03:18:07;;;;;;;3.60;1.47;;;;;;;1.02;83.05;98848.00;1692658;82;21414;-78
2022/11/18 03:20:54;;;;;;;3.50;1.90;;;;;;;1.03;83.02;98844.55;1669296;82;20919;-77
2022/11/18 03:23:35;;;;;;;2.05;1.60;;;;;;;1.04;82.91;98854.41;1687495;83;21126;-77
2022/11/18 03:26:30;;;;;;;2.40;1.90;;;;;;;1.03;82.89;98853.54;1687759;83;21562;-77
2022/11/18 03:29:01;;;;;;;2.77;1.98;;;;;;;1.01;82.86;98850.19;1701748;83;20977;-77
2022/11/18 03:31:41;;;;;;;1.62;1.50;;;;;;;1.01;82.86;98857.02;1700313;83;21334;-77
2022/11/18 03:34:28;;;;;;;1.95;1.45;;;;;;;1.00;82.79;98851.05;1694231;83;20906;-77
2022/11/18 03:37:00;;;;;;;1.85;1.60;;;;;;;0.99;82.82;98846.80;1671874;84;27238;-77
2022/11/18 03:39:30;;;;;;;2.65;1.60;;;;;;;1.01;82.77;98850.19;1694371;83;21531;-77
2022/11/18 03:42:06;;;;;;;3.10;1.37;;;;;;;1.04;82.64;98857.83;1695223;83;20934;-78
2022/11/18 03:44:36;;;;;;;3.27;1.70;;;;;;;1.03;82.58;98854.83;1665565;85;20924;-77
2022/11/18 03:47:11;;;;;;;2.60;1.50;;;;;;;1.04;82.39;98850.11;1691448;83;20978;-77
2022/11/18 03:49:46;;;;;;;2.15;1.70;;;;;;;1.06;82.38;98856.03;1686178;83;21270;-77
2022/11/18 03:52:20;;;;;;;2.15;1.30;;;;;;;1.06;82.21;98854.75;1688901;83;21658;-77
2022/11/18 03:54:50;;;;;;;1.92;1.50;;;;;;;1.06;82.13;98859.89;1691509;83;20970;-78
2022/11/18 03:57:21;;;;;;;2.17;1.00;;;;;;;1.05;82.13;98850.50;1686202;82;20986;-78
2022/11/18 03:59:53;;;;;;;2.40;1.37;;;;;;;1.04;82.09;98850.11;1692316;83;20986;-77
2022/11/18 04:02:24;;;;;;;1.00;0.90;;;;;;;1.04;82.01;98852.68;1693718;83;21103;-78
2022/11/18 04:04:54;;;;;;;2.05;1.25;;;;;;;1.04;81.81;98843.69;1683903;83;20977;-77
2022/11/18 04:07:44;;;;;;;1.92;1.40;;;;;;;1.02;81.61;98859.58;1670587;83;20941;-77
2022/11/18 04:10:28;;;;;;;1.77;1.27;;;;;;;1.04;81.58;98855.25;1667792;83;21516;-77
2022/11/18 04:13:02;;;;;;;1.25;0.95;;;;;;;1.04;81.39;98862.12;1666289;85;20915;-77
2022/11/18 04:15:31;;;;;;;1.20;0.93;;;;;;;1.03;81.31;98868.13;1676585;83;21019;-77
2022/11/18 04:17:58;;;;;;;1.80;1.02;;;;;;;1.01;81.26;98854.03;1688905;83;20945;-77
2022/11/18 04:20:27;;;;;;;3.02;1.30;;;;;;;1.00;81.21;98857.47;1678955;83;21002;-77
2022/11/18 04:22:54;;;;;;;1.90;1.17;;;;;;;0.98;80.79;98869.53;1686855;83;20964;-77
2022/11/18 04:25:20;;;;;;;1.20;0.90;;;;;;;0.97;80.50;98857.98;1679366;83;20972;-77
2022/11/18 04:27:47;;;;;;;2.50;1.32;;;;;;;0.93;80.08;98851.23;1676994;84;21136;-77
2022/11/18 04:30:14;;;;;;;2.07;1.20;;;;;;;0.92;80.30;98870.92;1684736;83;21519;-78
2022/11/18 04:32:40;;;;;;;4.90;1.27;;;;;;;0.93;80.14;98857.22;1676474;83;21061;-78
2022/11/18 04:35:07;;;;;;;1.67;1.20;;;;;;;0.89;80.21;98860.27;1688153;84;21621;-78
2022/11/18 04:37:34;;;;;;;2.20;1.25;;;;;;;0.88;80.15;98848.75;1679988;83;20978;-77
2022/11/18 04:40:01;;;;;;;2.05;1.17;;;;;;;0.87;80.09;98856.07;1673225;83;21856;-78
2022/11/18 04:42:27;;;;;;;1.10;0.87;;;;;;;0.86;79.98;98858.22;1684100;83;20922;-78
2022/11/18 04:44:54;;;;;;;1.53;0.80;;;;;;;0.85;79.96;98866.81;1679463;83;20914;-78
2022/11/18 04:47:21;;;;;;;1.32;1.02;;;;;;;0.76;79.68;98846.47;1680406;83;21740;-77
2022/11/18 04:49:48;;;;;;;1.62;1.30;;;;;;;0.86;79.75;98859.50;1685584;83;20970;-77
2022/11/18 04:52:15;;;;;;;1.47;1.25;;;;;;;0.86;79.54;98858.22;1684464;83;20995;-78
2022/11/18 04:54:41;;;;;;;1.62;0.93;;;;;;;0.86;79.61;98858.22;1676051;83;21453;-78
2022/11/18 04:57:09;;;;;;;1.32;1.00;;;;;;;0.84;79.35;98863.41;1667494;84;21495;-78
2022/11/18 04:59:35;;;;;;;1.32;1.12;;;;;;;0.85;79.35;98865.53;1673772;83;20938;-77
2022/11/18 05:02:03;;;;;;;1.07;0.80;;;;;;;0.85;79.13;98869.39;1675172;83;20935;-77
2022/11/18 05:04:31;;;;;;;;;;;;;;;0.83;78.93;98868.56;1676299;83;21900;-77
2022/11/18 05:07:00;;;;;;;2.25;1.50;;;;;;;0.81;78.88;98858.75;1694542;83;20255;-78
2022/11/18 05:09:26;;;;;;;1.77;1.15;;;;;;;0.80;78.98;98869.47;1677387;84;20935;-77
2022/11/18 05:14:38;;;;;;;2.75;1.10;;;;;;;0.81;78.89;98875.04;1680225;83;21041;-77
2022/11/18 05:17:08;;;;;;;1.17;0.90;;;;;;;0.81;79.00;98875.45;1695839;82;21390;-77
2022/11/18 05:19:38;;;;;;;1.47;1.25;;;;;;;0.80;78.94;98876.34;1696330;83;21442;-77
2022/11/18 05:22:04;;;;;;;9.75;4.75;;;;;;;0.79;78.93;98872.09;1694841;83;20957;-77
2022/11/18 05:24:31;;;;;;;1.17;0.93;;;;;;;0.80;78.96;98863.49;1690633;83;20962;-77
2022/11/18 05:26:58;;;;;;;2.25;1.25;;;;;;;0.80;78.94;98868.63;1692262;82;21470;-77
2022/11/18 05:29:24;;;;;;;1.80;0.90;;;;;;;0.79;78.91;98872.09;1693179;83;21276;-77
2022/11/18 05:31:51;;;;;;;3.72;1.15;;;;;;;0.79;78.91;98870.81;1677599;83;20970;-78
2022/11/18 05:34:18;;;;;;;1.35;1.00;;;;;;;0.82;78.76;98869.45;1690513;83;20930;-78
2022/11/18 05:36:44;;;;;;;1.87;1.00;;;;;;;0.84;78.77;98880.52;1671801;83;21005;-78
2022/11/18 05:39:11;;;;;;;2.30;0.90;;;;;;;0.85;78.81;98882.23;1686101;83;21536;-77
2022/11/18 05:44:23;;;;;;;1.90;0.90;;;;;;;0.88;78.81;98886.02;1694382;83;20994;-77
2022/11/18 05:46:49;;;;;;;1.62;0.88;;;;;;;0.87;78.67;98889.48;1690536;83;20981;-77
2022/11/18 05:49:16;;;;;;;1.73;0.93;;;;;;;0.86;78.70;98889.89;1691881;83;21449;-77
2022/11/18 05:51:43;;;;;;;1.17;1.00;;;;;;;0.87;78.72;98888.20;1693073;83;21542;-78
2022/11/18 05:54:13;;;;;;;1.27;1.03;;;;;;;0.88;78.65;98900.16;1683378;83;21048;-78
2022/11/18 05:56:44;;;;;;;0.95;0.70;;;;;;;0.90;78.70;98886.84;1687842;84;21105;-78
2022/11/18 05:59:12;;;;;;;2.35;0.88;;;;;;;0.92;78.39;98893.22;1694082;83;20906;-76
2022/11/18 06:01:47;;;;;;;3.37;0.95;;;;;;;0.92;78.48;98899.20;1694692;83;20930;-77
2022/11/18 06:04:28;;;;;;;1.52;0.72;;;;;;;0.92;78.27;98894.06;1693872;83;20979;-77
2022/11/18 06:07:02;;;;;;;0.90;0.70;;;;;;;0.94;78.24;98899.18;1686619;83;21237;-76
2022/11/18 06:09:34;;;;;;;1.57;0.90;;;;;;;0.96;77.66;98921.41;1693968;83;20957;-76
2022/11/18 06:12:03;;;;;;;0.60;0.60;;;;;;;0.96;77.99;98907.27;1679180;82;21520;-78
2022/11/18 06:14:43;;;;;;;0.80;0.50;;;;;;;0.96;77.95;98907.27;1693697;82;20955;-78
2022/11/18 06:17:24;;;;;;;1.40;0.90;;;;;;;0.95;77.89;98901.70;1660313;84;21436;-75
2022/11/18 06:19:51;;;;;;;1.00;0.80;;;;;;;0.97;77.78;98912.80;1693293;84;21437;-75
2022/11/18 06:22:18;;;;;;;2.15;0.70;;;;;;;0.97;77.04;98916.66;1660178;86;20966;-75
2022/11/18 06:24:45;;;;;;;2.08;0.78;;;;;;;0.94;76.93;98916.73;1693544;83;20965;-75
2022/11/18 06:27:13;;;;;;;1.27;0.88;;;;;;;0.93;77.10;98918.91;1691024;82;21460;-76
2022/11/18 06:29:40;;;;;;;1.77;0.93;;;;;;;0.93;77.09;98924.05;1692517;83;20962;-76
2022/11/18 06:32:06;;;;;;;2.60;1.05;;;;;;;0.94;77.13;98923.16;1696325;83;21057;-76
2022/11/18 06:34:33;;;;;;;2.20;0.90;;;;;;;0.94;77.05;98928.30;1691641;83;21045;-76
2022/11/18 06:37:03;;;;;;;4.28;0.93;;;;;;;0.92;76.79;98928.76;1676961;82;20952;-77
2022/11/18 06:39:30;;;;;;;1.98;1.00;;;;;;;0.90;76.99;98934.39;1688011;83;20929;-77
2022/11/18 06:41:57;;;;;;;1.70;1.30;;;;;;;0.87;77.05;98934.46;1692365;83;20955;-77
2022/11/18 06:44:24;;;;;;;2.02;1.00;;;;;;;0.83;76.98;98932.81;1693971;83;21099;-77
2022/11/18 06:46:56;;;;;;;1.72;1.10;;;;;;;0.79;77.12;98939.75;1695649;82;20962;-77
2022/11/18 06:49:24;;;;;;;1.85;1.00;;;;;;;0.76;77.07;98941.54;1693743;83;21081;-78
2022/11/18 06:51:51;;;;;;;0.85;0.80;;;;;;;0.71;76.63;98934.36;1694197;83;20887;-77
2022/11/18 06:54:18;;;;;;;2.03;1.00;;;;;;;0.66;76.61;98942.98;1700084;83;20942;-77
2022/11/18 06:56:45;;;;;;;1.45;1.10;;;;;;;0.60;76.55;98944.39;1683166;83;21621;-77
2022/11/18 06:59:12;;;;;;;1.15;0.90;;;;;;;0.56;76.61;98946.63;1674162;83;21452;-76
2022/11/18 07:01:41;;;;;;;2.05;0.90;;;;;;;0.53;76.68;98953.08;1669082;83;21475;-77
2022/11/18 07:04:07;;;;;;;2.33;1.30;;;;;;;0.52;76.10;98957.81;1669464;84;20993;-80
2022/11/18 07:06:35;;;;;;;0.70;0.70;;;;;;;0.50;76.24;98950.57;1687386;83;21003;-77
2022/11/18 07:09:05;;;;;;;1.92;1.15;;;;;;;0.50;76.03;98940.30;1649343;84;21116;-78
2022/11/18 07:11:32;;;;;;;1.55;0.68;;;;;;;0.49;75.79;98943.75;1687578;83;20979;-77
2022/11/18 07:14:00;;;;;;;2.37;1.70;;;;;;;0.49;76.09;98951.45;1669164;83;21558;-77
2022/11/18 07:16:26;;;;;;;1.35;1.25;;;;;;;0.50;76.15;98949.29;1673883;83;20958;-76
2022/11/18 07:18:54;;;;;;;2.17;1.50;;;;;;;0.51;76.26;98947.15;1708173;83;20957;-75
2022/11/18 07:21:25;;;;;;;1.87;1.17;;;;;;;0.51;76.12;98949.72;1676128;83;21115;-77
2022/11/18 07:23:53;;;;;;;3.37;1.98;;;;;;;0.54;76.15;98954.80;1654276;84;20969;-78
2022/11/18 07:26:20;;;;;;;;;;;;;;;0.56;76.10;98959.47;1687908;83;20966;-77
2022/11/18 07:28:46;;;;;;;1.42;0.70;;;;;;;0.57;75.81;98974.00;1669270;83;20129;-76
2022/11/18 07:31:17;;;;;;;1.12;0.80;;;;;;;0.54;75.70;98972.77;1655589;84;21047;-76
2022/11/18 07:33:44;;;;;;;5.00;2.12;;;;;;;0.53;75.43;98965.08;1659493;83;21082;-76
2022/11/18 07:36:13;;;;;;;;;;;;;;;0.51;75.54;98971.55;1685285;83;20922;-89
2022/11/18 07:38:40;;;;;;;1.47;0.72;;;;;;;0.52;75.34;98973.67;1701105;83;20099;-76
2022/11/18 07:41:13;;;;;;;0.90;0.60;;;;;;;0.51;75.24;98968.98;1699530;83;20926;-81
2022/11/18 07:43:41;;;;;;;1.57;1.10;;;;;;;0.51;75.04;98965.13;1656906;84;20914;-84
2022/11/18 07:46:20;;;;;;;1.70;1.20;;;;;;;0.51;74.98;98967.70;1695580;83;21035;-79
2022/11/18 07:48:50;;;;;;;1.98;0.95;;;;;;;0.52;74.95;98953.97;1712911;82;21495;-75
2022/11/18 07:51:19;;;;;;;1.82;0.72;;;;;;;0.54;74.93;98958.64;1720432;82;20917;-75
2022/11/18 07:53:46;;;;;;;0.90;0.60;;;;;;;0.54;74.71;98959.93;1699349;83;20926;-79
2022/11/18 07:56:13;;;;;;;0.93;0.60;;;;;;;0.56;74.73;98960.76;1699783;82;21483;-81
2022/11/18 07:58:41;;;;;;;1.20;0.60;;;;;;;0.56;74.46;98967.18;1664922;84;21064;-87
2022/11/18 08:01:12;;;;;;;1.35;0.70;;;;;;;0.57;74.57;98959.88;1677298;83;21013;-76
2022/11/18 08:03:40;;;;;;;1.47;0.53;;;;;;;0.58;74.54;98971.83;1689003;83;20981;-89
2022/11/18 08:06:10;;;;;;;0.80;0.45;;;;;;;0.59;73.85;98965.83;1702036;83;20926;-80
2022/11/18 08:08:37;;;;;;;6.35;1.12;;;;;;;0.59;73.88;98963.27;1691300;83;20941;-83
2022/11/18 08:11:07;;;;;;;0.80;0.62;;;;;;;0.58;73.71;98976.97;1693393;83;21093;-81
2022/11/18 08:13:34;;;;;;;1.10;1.00;;;;;;;0.52;73.84;98974.52;1693129;83;20934;-82
2022/11/18 08:16:02;;;;;;;1.07;0.60;;;;;;;0.50;73.80;98971.56;1701126;82;21013;-82
2022/11/18 08:18:34;;;;;;;1.30;1.00;;;;;;;0.52;73.71;98984.79;1672648;83;20891;-81
2022/11/18 08:21:06;;;;;;;1.77;0.80;;;;;;;0.54;73.58;98984.33;1700763;83;20953;-79
2022/11/18 08:23:33;;;;;;;1.37;1.00;;;;;;;0.57;73.60;98989.41;1697264;83;21261;-77
2022/11/18 08:26:10;;;;;;;1.17;0.93;;;;;;;0.57;73.74;98980.42;1700523;83;20921;-86
2022/11/18 08:28:37;;;;;;;2.17;0.82;;;;;;;0.59;73.83;98984.27;1689144;83;20914;-81
2022/11/18 08:31:20;;;;;;;3.33;0.80;;;;;;;0.59;73.56;98990.69;1694364;82;21461;-95
2022/11/18 08:33:47;;;;;;;0.82;0.68;;;;;;;0.64;73.89;98989.72;1682310;83;20962;-90
2022/11/18 08:36:20;;;;;;;1.60;1.12;;;;;;;0.79;73.82;98991.14;1704257;83;20989;-89
2022/11/18 08:38:47;;;;;;;1.00;0.75;;;;;;;0.93;73.83;98988.30;1703169;83;20926;-86
2022/11/18 08:41:19;;;;;;;1.20;0.80;;;;;;;1.01;73.64;98989.00;1699354;83;20969;-82
2022/11/18 08:43:46;;;;;;;0.90;0.60;;;;;;;1.03;73.39;98982.08;1697928;83;20952;-90
2022/11/18 08:46:12;;;;;;;1.50;0.57;;;;;;;1.06;73.33;98982.02;1694116;82;20925;-81
2022/11/18 08:48:39;;;;;;;1.12;0.72;;;;;;;1.04;73.25;98981.22;1700693;83;21165;-85
2022/11/18 08:51:10;;;;;;;1.53;1.23;;;;;;;1.04;73.35;98983.79;1700495;82;20970;-89
2022/11/18 08:53:37;;;;;;;1.57;1.02;;;;;;;1.03;73.35;98982.08;1702893;83;20922;-78
2022/11/18 08:56:04;;;;;;;1.45;0.50;;;;;;;0.95;73.00;98991.67;1691055;83;20876;-87
2022/11/18 08:58:31;;;;;;;1.52;0.95;;;;;;;0.89;72.83;98989.22;1659074;84;20933;-88
2022/11/18 09:01:07;;;;;;;3.30;1.62;;;;;;;0.84;72.86;98992.31;1689224;83;22078;-78
2022/11/18 09:03:34;;;;;;;1.17;0.70;;;;;;;0.79;72.68;98985.16;1705633;82;21915;-80
2022/11/18 09:06:11;;;;;;;1.72;1.00;;;;;;;0.73;72.28;99010.95;1708216;82;20996;-79
2022/11/18 09:08:39;;;;;;;1.65;0.62;;;;;;;0.73;72.39;99005.81;1715377;82;21007;-80
2022/11/18 09:11:24;;;;;;;2.98;1.60;;;;;;;0.70;72.16;99003.30;1689599;84;20910;-93
2022/11/18 09:13:56;;;;;;;2.42;1.55;;;;;;;0.65;72.09;99008.11;1702586;81;21110;-81
2022/11/18 09:16:25;;;;;;;3.33;1.90;;;;;;;0.64;72.39;99001.28;1702910;81;21009;-82
2022/11/18 09:18:55;;;;;;;1.70;0.93;;;;;;;0.62;72.27;98999.17;1682103;83;20936;-84
2022/11/18 09:21:22;;;;;;;0.88;0.80;;;;;;;0.63;72.50;98999.57;1687333;83;20974;-87
2022/11/18 09:23:49;;;;;;;2.77;1.00;;;;;;;0.68;72.57;98994.80;1702041;82;20997;-90
2022/11/18 09:26:19;;;;;;;2.35;1.10;;;;;;;0.75;72.75;98991.22;1711199;81;21419;-91
2022/11/18 09:28:47;;;;;;;0.85;0.70;;;;;;;0.77;72.71;98992.89;1706816;81;20954;-91
2022/11/18 09:31:15;;;;;;;;;;;;;;;0.77;72.69;99004.89;1715125;82;20893;-85
2022/11/18 09:33:43;;;;;;;7.65;1.40;;;;;;;0.73;72.60;99012.23;1710599;82;20118;-91
2022/11/18 09:36:20;;;;;;;2.20;1.25;;;;;;;0.61;72.45;99021.02;1688259;82;20964;-83
2022/11/18 09:38:47;;;;;;;;;;;;;;;0.24;72.53;99034.95;1706600;81;21830;-83
2022/11/18 09:45:38;;;;;;;0.78;0.60;;;;;;;-0.34;72.85;99032.38;1689663;83;20916;-89
2022/11/18 09:48:13;;;;;;;1.10;0.70;;;;;;;-0.51;73.50;99034.34;1718113;81;20973;-82
2022/11/18 09:50:40;;;;;;;1.90;1.12;;;;;;;-0.50;73.53;99023.23;1708694;82;21471;-85
2022/11/18 09:53:22;;;;;;;3.50;1.07;;;;;;;-0.40;73.72;99037.60;1684404;83;24186;-81
2022/11/18 09:55:50;;;;;;;2.45;1.32;;;;;;;-0.30;73.83;99027.64;1681886;82;21315;-84
2022/11/18 09:58:25;;;;;;;1.95;1.35;;;;;;;-0.14;74.19;99028.68;1680652;82;20980;-90
2022/11/18 10:00:52;;;;;;;4.37;1.42;;;;;;;0.03;74.18;99024.16;1653752;84;21001;-89
2022/11/18 10:03:28;;;;;;;2.50;1.77;;;;;;;0.13;74.47;99020.55;1652103;85;20930;-81
2022/11/18 10:06:09;;;;;;;3.27;1.90;;;;;;;0.12;74.57;99020.16;1677716;83;21278;-84
2022/11/18 10:08:44;;;;;;;4.92;2.90;;;;;;;0.15;74.93;99018.81;1701082;82;21013;-86
2022/11/18 10:11:22;;;;;;;8.75;2.77;;;;;;;0.24;75.00;99019.55;1701786;83;21020;-78
2022/11/18 10:14:28;;;;;;;4.00;2.40;;;;;;;0.26;74.98;99016.08;1698514;83;20883;-76
2022/11/18 10:17:14;;;;;;;3.75;2.35;;;;;;;0.40;75.18;99008.14;1688216;83;22054;-77
2022/11/18 10:19:57;;;;;;;3.58;1.98;;;;;;;0.49;74.97;99005.40;1694157;82;21252;-79
2022/11/18 10:22:47;;;;;;;4.17;2.35;;;;;;;0.42;74.81;99017.92;1692640;83;21574;-86
2022/11/18 10:25:16;;;;;;;5.62;2.62;;;;;;;0.27;74.78;99027.19;1673258;84;20967;-81
2022/11/18 10:27:47;;;;;;;4.37;2.47;;;;;;;0.08;74.78;99027.48;1701609;83;21028;-80
2022/11/18 10:30:20;;;;;;;6.78;3.58;;;;;;;-0.02;74.99;99036.21;1695461;83;20898;-80
2022/11/18 10:33:18;;;;;;;10.10;3.75;;;;;;;-0.23;74.96;99039.93;1700784;83;21054;-79
2022/11/18 10:35:45;;;;;;;11.60;4.60;;;;;;;-0.36;75.27;99039.27;1706937;83;20954;-83
2022/11/18 10:38:18;;;;;;;14.03;5.17;;;;;;;-0.43;75.34;99047.91;1701292;83;20946;-80
2022/11/18 10:40:57;;;;;;;12.35;5.25;;;;;;;-0.43;75.56;99053.03;1696270;82;21017;-76
2022/11/18 10:43:48;;;;;;;11.57;5.30;;;;;;;-0.38;75.59;99046.13;1702140;82;20933;-78
2022/11/18 10:46:26;;;;;;;12.37;5.85;;;;;;;-0.41;75.57;99046.18;1711439;82;21261;-77
2022/11/18 10:49:13;;;;;;;11.70;6.53;;;;;;;-0.39;75.76;99038.04;1697082;83;20957;-76
2022/11/18 10:51:46;;;;;;;4.28;2.95;;;;;;;-0.38;75.92;99035.88;1696454;83;20906;-77
2022/11/18 10:54:20;;;;;;;2.77;1.90;;;;;;;-0.17;76.05;99040.28;1694583;83;21554;-83
2022/11/18 10:56:58;;;;;;;1.47;1.05;;;;;;;-0.01;76.20;99022.50;1703631;83;21092;-76
2022/11/18 10:59:36;;;;;;;1.47;0.82;;;;;;;0.16;76.06;99030.77;1698484;83;21261;-76
2022/11/18 11:02:29;;;;;;;0.93;0.80;;;;;;;0.34;76.11;99026.23;1700901;81;20887;-79
2022/11/18 11:04:58;;;;;;;1.22;0.65;;;;;;;0.42;75.96;99021.77;1693583;83;20969;-78
2022/11/18 11:07:36;;;;;;;1.37;0.95;;;;;;;0.41;75.95;99017.53;1681564;83;20950;-77
2022/11/18 11:10:11;;;;;;;1.42;1.17;;;;;;;0.37;75.98;99028.74;1694826;83;20978;-87
2022/11/18 11:12:59;;;;;;;1.77;1.10;;;;;;;0.34;76.02;99015.95;1676224;83;21137;-73
2022/11/18 11:15:36;;;;;;;2.30;1.47;;;;;;;0.31;76.13;99027.53;1691255;83;20926;-78
2022/11/18 11:20:56;;;;;;;0.90;0.90;;;;;;;0.11;76.31;99039.42;1689263;83;20974;-75
2022/11/18 11:23:24;;;;;;;2.27;1.20;;;;;;;-0.05;76.45;99043.96;1695839;83;20990;-75
2022/11/18 11:26:01;;;;;;;1.37;1.12;;;;;;;-0.16;76.55;99041.98;1684967;83;21124;-77
2022/11/18 11:28:36;;;;;;;5.03;2.20;;;;;;;-0.27;76.59;99043.42;1679424;83;20916;-75
2022/11/18 11:31:14;;;;;;;2.80;1.60;;;;;;;-0.44;77.31;99039.81;1688789;83;20950;-78
2022/11/18 11:34:10;;;;;;;3.52;1.22;;;;;;;-0.66;79.41;99047.38;1650662;84;20982;-75
2022/11/18 11:37:00;;;;;;;5.95;2.37;;;;;;;-0.74;80.11;99044.90;1673546;83;21027;-82
2022/11/18 11:39:44;;;;;;;6.35;2.95;;;;;;;-0.75;79.42;99041.49;1694007;83;21366;-82
2022/11/18 11:42:48;;;;;;;11.88;4.72;;;;;;;-0.65;78.86;99046.50;1689675;83;21013;-77
2022/11/18 11:45:32;;;;;;;3.10;1.70;;;;;;;-0.51;78.29;99042.03;1677381;83;23288;-80
2022/11/18 11:48:07;;;;;;;3.45;1.87;;;;;;;-0.32;78.27;99040.91;1695980;82;20974;-79
2022/11/18 11:50:54;;;;;;;5.75;2.90;;;;;;;-0.14;78.23;99044.08;1653138;84;20942;-81
2022/11/18 11:54:08;;;;;;;7.50;3.10;;;;;;;-0.04;78.23;99037.95;1687565;82;21062;-86
2022/11/18 11:56:52;;;;;;;2.92;1.90;;;;;;;0.00;78.08;99037.05;1632255;84;21477;-82
2022/11/18 11:59:27;;;;;;;10.88;5.12;;;;;;;0.10;78.18;99037.73;1636592;86;21026;-87
2022/11/18 12:02:18;;;;;;;5.85;2.85;;;;;;;0.29;78.52;99035.72;1640393;86;20988;-83
2022/11/18 12:05:08;;;;;;;1.37;1.27;;;;;;;0.53;78.75;99039.13;1647487;85;21120;-77
2022/11/18 12:07:48;;;;;;;3.40;1.80;;;;;;;0.73;78.65;99039.22;1643748;85;21345;-77
2022/11/18 12:10:29;;;;;;;4.53;2.50;;;;;;;0.98;78.95;99037.03;1638512;86;20982;-77
2022/11/18 12:13:34;;;;;;;3.37;2.40;;;;;;;1.14;78.65;99042.73;1644783;86;20990;-77
2022/11/18 12:16:08;;;;;;;1.60;1.40;;;;;;;1.02;78.21;99039.52;1630676;86;20931;-77
2022/11/18 12:18:42;;;;;;;1.98;1.20;;;;;;;0.86;78.15;99050.97;1649394;85;21060;-77
2022/11/18 12:21:46;;;;;;;1.00;0.90;;;;;;;0.55;78.00;99054.09;1635160;84;21066;-78
2022/11/18 12:24:21;;;;;;;1.98;1.20;;;;;;;0.29;78.22;99058.83;1621993;86;20983;-77
2022/11/18 12:26:50;;;;;;;1.32;1.00;;;;;;;0.07;78.53;99064.30;1619295;86;20954;-78